Time;durP1;ratioP1;P1;durP2;ratioP2;P2;SDS_P1;SDS_P2;PMS_P1;PMS_P2;Temp;Humidity;BMP_temperature;BMP_pressure;BME280_temperature;BME280_humidity;BME280_pressure;Samples;Min_cycle;Max_cycle;Signal;HPM_P1;HPM_P2
2021/11/16 00:00:47;;;;;;;75.45;35.38;;;5.70;99.90;;;;;;6184482;23;20016;-79
2021/11/16 00:03:14;;;;;;;79.38;34.42;;;5.70;99.90;;;;;;6186032;23;20463;-78
2021/11/16 00:05:39;;;;;;;74.35;34.47;;;5.70;99.90;;;;;;6160629;23;20012;-78
2021/11/16 00:08:07;;;;;;;80.18;36.92;;;5.70;99.90;;;;;;6183386;23;20056;-79
2021/11/16 00:10:34;;;;;;;76.07;34.85;;;5.70;99.90;;;;;;6160335;23;20513;-78
2021/11/16 00:13:00;;;;;;;77.38;35.33;;;5.70;99.90;;;;;;6161958;23;20350;-79
2021/11/16 00:15:27;;;;;;;68.40;32.67;;;5.70;99.90;;;;;;6184448;23;20058;-79
2021/11/16 00:17:52;;;;;;;78.28;35.45;;;5.80;99.90;;;;;;6160156;23;20385;-79
2021/11/16 00:20:19;;;;;;;83.45;37.22;;;5.70;99.90;;;;;;6182389;23;20045;-79
2021/11/16 00:22:45;;;;;;;78.95;35.50;;;5.80;99.90;;;;;;6159126;23;20519;-79
2021/11/16 00:27:41;;;;;;;75.90;36.47;;;5.70;99.90;;;;;;6184650;23;20065;-79
2021/11/16 00:30:07;;;;;;;69.22;34.97;;;5.80;99.90;;;;;;6184895;23;20013;-79
2021/11/16 00:32:33;;;;;;;71.13;34.55;;;5.80;99.90;;;;;;6185015;23;20012;-79
2021/11/16 00:34:59;;;;;;;75.55;35.00;;;5.80;99.90;;;;;;6186453;23;20008;-79
2021/11/16 00:37:27;;;;;;;72.82;35.90;;;5.70;99.90;;;;;;6160683;23;20024;-79
2021/11/16 00:39:59;;;;;;;81.13;36.20;;;5.70;99.90;;;;;;6160997;23;20028;-78
2021/11/16 00:42:26;;;;;;;75.38;35.88;;;5.70;99.90;;;;;;6185970;23;20035;-79
2021/11/16 00:44:52;;;;;;;76.05;35.22;;;5.70;99.90;;;;;;6160353;23;20070;-79
2021/11/16 00:47:18;;;;;;;76.95;35.33;;;5.70;99.90;;;;;;6183938;23;20020;-79
2021/11/16 00:49:45;;;;;;;76.10;37.17;;;5.70;99.90;;;;;;6209922;23;20449;-79
2021/11/16 00:52:11;;;;;;;76.55;36.38;;;5.70;99.90;;;;;;6160999;23;20012;-79
2021/11/16 00:54:37;;;;;;;78.32;36.63;;;5.70;99.90;;;;;;6184936;23;20017;-79
2021/11/16 00:57:04;;;;;;;78.25;35.60;;;5.70;99.90;;;;;;6160565;23;20114;-79
2021/11/16 00:59:31;;;;;;;76.05;35.95;;;5.70;99.90;;;;;;6159807;23;20013;-79
2021/11/16 01:01:57;;;;;;;76.50;37.42;;;5.70;99.90;;;;;;6184365;23;20452;-79
2021/11/16 01:04:25;;;;;;;74.38;37.03;;;5.70;99.90;;;;;;6186333;23;20111;-79
2021/11/16 01:06:51;;;;;;;77.97;37.13;;;5.70;99.90;;;;;;6199164;23;20017;-79
2021/11/16 01:09:17;;;;;;;76.28;36.20;;;5.70;99.90;;;;;;6212107;23;20075;-79
2021/11/16 01:11:42;;;;;;;82.13;37.45;;;5.70;99.90;;;;;;6212808;23;20012;-80
2021/11/16 01:14:08;;;;;;;75.85;35.45;;;5.70;99.90;;;;;;6211685;23;20059;-79
2021/11/16 01:16:34;;;;;;;80.82;35.65;;;5.70;99.90;;;;;;6210559;23;20008;-78
2021/11/16 01:19:02;;;;;;;80.93;36.42;;;5.70;99.90;;;;;;6212572;23;20162;-79
2021/11/16 01:21:28;;;;;;;76.95;35.45;;;5.70;99.90;;;;;;6187758;23;20384;-80
2021/11/16 01:23:54;;;;;;;80.95;34.63;;;5.70;99.90;;;;;;6187024;23;20088;-79
2021/11/16 01:26:19;;;;;;;73.90;36.53;;;5.70;99.90;;;;;;6212215;23;20492;-78
2021/11/16 01:28:46;;;;;;;76.75;34.70;;;5.60;99.90;;;;;;6211310;23;20115;-78
2021/11/16 01:31:14;;;;;;;81.18;36.22;;;5.60;99.90;;;;;;6210676;23;20017;-78
2021/11/16 01:33:45;;;;;;;80.65;33.97;;;5.60;99.90;;;;;;6211449;23;20050;-79
2021/11/16 01:36:14;;;;;;;86.97;39.13;;;5.80;99.90;;;;;;6187613;23;20019;-78
2021/11/16 01:38:41;;;;;;;83.47;36.50;;;5.60;99.90;;;;;;6212741;23;20016;-78
2021/11/16 01:41:07;;;;;;;88.90;36.72;;;5.60;99.90;;;;;;6213546;23;20024;-78
2021/11/16 01:43:33;;;;;;;80.85;35.38;;;5.60;99.90;;;;;;6213196;23;20012;-79
2021/11/16 01:46:01;;;;;;;84.55;37.45;;;5.60;99.90;;;;;;6212599;23;20008;-79
2021/11/16 01:48:28;;;;;;;79.43;36.92;;;5.60;99.90;;;;;;6212734;23;20013;-78
2021/11/16 01:50:54;;;;;;;80.03;35.45;;;5.60;99.90;;;;;;6213586;23;20336;-78
2021/11/16 01:53:20;;;;;;;85.30;37.50;;;5.70;99.90;;;;;;6212847;23;20084;-78
2021/11/16 01:55:45;;;;;;;91.72;37.88;;;5.60;99.90;;;;;;6212968;23;20046;-79
2021/11/16 01:58:11;;;;;;;81.50;36.28;;;5.60;99.90;;;;;;6187802;23;20322;-79
2021/11/16 02:00:41;;;;;;;88.15;39.25;;;5.60;99.90;;;;;;6212309;23;20017;-79
2021/11/16 02:03:09;;;;;;;85.63;38.55;;;5.60;99.90;;;;;;6213041;23;20095;-79
2021/11/16 02:05:53;;;;;;;92.57;40.15;;;5.60;99.90;;;;;;6213009;23;20021;-78
2021/11/16 02:08:20;;;;;;;82.85;37.42;;;5.60;99.90;;;;;;6163070;23;20024;-79
2021/11/16 02:10:48;;;;;;;84.13;37.70;;;5.60;99.90;;;;;;6162765;23;20020;-78
2021/11/16 02:13:17;;;;;;;88.60;38.17;;;5.60;99.90;;;;;;6188546;23;20013;-79
2021/11/16 02:15:43;;;;;;;85.68;38.92;;;5.60;99.90;;;;;;6163078;23;20341;-80
2021/11/16 02:18:12;;;;;;;81.43;36.85;;;5.70;99.90;;;;;;6161928;23;20013;-79
2021/11/16 02:20:39;;;;;;;88.18;37.67;;;5.60;99.90;;;;;;6187992;23;20379;-79
2021/11/16 02:23:06;;;;;;;82.47;37.53;;;5.60;99.90;;;;;;6162993;23;20012;-79
2021/11/16 02:25:32;;;;;;;85.15;37.30;;;5.60;99.90;;;;;;6187627;23;20043;-79
2021/11/16 02:27:58;;;;;;;96.82;39.70;;;5.70;99.90;;;;;;6187908;23;20012;-79
2021/11/16 02:30:24;;;;;;;88.10;37.92;;;5.70;99.90;;;;;;6162146;23;20352;-79
2021/11/16 02:32:52;;;;;;;81.15;33.20;;;5.60;99.90;;;;;;6187569;23;20012;-79
2021/11/16 02:35:20;;;;;;;86.30;38.72;;;5.60;99.90;;;;;;6187318;23;20013;-78
2021/11/16 02:37:46;;;;;;;84.68;37.55;;;5.70;99.90;;;;;;6214275;23;20017;-79
2021/11/16 02:40:13;;;;;;;90.85;37.75;;;5.70;99.90;;;;;;6162712;23;20088;-79
2021/11/16 02:42:39;;;;;;;83.20;36.58;;;5.60;99.90;;;;;;6187930;23;20013;-79
2021/11/16 02:45:07;;;;;;;86.95;36.55;;;5.60;99.90;;;;;;6187383;23;20017;-79
2021/11/16 02:47:33;;;;;;;86.53;37.65;;;5.60;99.90;;;;;;6162144;23;20013;-79
2021/11/16 02:49:59;;;;;;;84.75;37.22;;;5.70;99.90;;;;;;6187267;23;20394;-78
2021/11/16 02:52:24;;;;;;;83.63;37.35;;;5.60;99.90;;;;;;6187465;23;20325;-79
2021/11/16 02:54:51;;;;;;;90.05;36.45;;;5.50;99.90;;;;;;6187248;23;20047;-79
2021/11/16 02:57:16;;;;;;;84.57;35.00;;;5.60;99.90;;;;;;6187375;23;20066;-79
2021/11/16 02:59:42;;;;;;;80.00;36.35;;;5.60;99.90;;;;;;6160795;23;20087;-79
2021/11/16 03:02:10;;;;;;;83.32;35.38;;;5.60;99.90;;;;;;6161566;23;20345;-79
2021/11/16 03:04:37;;;;;;;89.00;37.40;;;5.60;99.90;;;;;;6187268;23;20013;-79
2021/11/16 03:07:04;;;;;;;82.45;37.30;;;5.60;99.90;;;;;;6176860;23;20100;-78
2021/11/16 03:09:32;;;;;;;85.55;37.17;;;5.60;99.90;;;;;;6212392;23;20012;-79
2021/11/16 03:11:59;;;;;;;91.78;37.80;;;5.60;99.90;;;;;;6212146;23;20124;-79
2021/11/16 03:14:26;;;;;;;89.50;38.35;;;5.50;99.90;;;;;;6210730;23;20051;-79
2021/11/16 03:16:52;;;;;;;96.30;38.33;;;5.50;99.90;;;;;;6186982;23;20058;-78
2021/11/16 03:19:18;;;;;;;86.38;36.30;;;5.50;99.90;;;;;;6212530;23;20013;-78
2021/11/16 03:21:53;;;;;;;82.60;37.40;;;5.60;99.90;;;;;;6212439;23;20017;-78
2021/11/16 03:24:19;;;;;;;91.47;37.88;;;5.50;99.90;;;;;;6186700;23;20028;-78
2021/11/16 03:26:45;;;;;;;90.05;37.65;;;5.50;99.90;;;;;;6185853;23;20025;-78
2021/11/16 03:29:12;;;;;;;92.07;39.08;;;5.60;99.90;;;;;;6212191;23;20048;-78
2021/11/16 03:31:48;;;;;;;90.57;38.00;;;5.60;99.90;;;;;;6186337;23;20020;-78
2021/11/16 03:34:13;;;;;;;85.60;36.50;;;5.60;99.90;;;;;;6211567;23;20313;-78
2021/11/16 03:36:39;;;;;;;89.85;38.78;;;5.50;99.90;;;;;;6211164;23;20062;-78
2021/11/16 03:39:05;;;;;;;92.95;39.97;;;5.70;99.90;;;;;;6186292;23;20095;-78
2021/11/16 03:41:31;;;;;;;93.82;38.85;;;5.50;99.90;;;;;;6187295;23;20019;-78
2021/11/16 03:43:57;;;;;;;86.05;38.50;;;5.70;99.90;;;;;;6212504;23;20013;-78
2021/11/16 03:46:23;;;;;;;93.38;39.85;;;5.60;99.90;;;;;;6211185;23;20015;-78
2021/11/16 03:48:49;;;;;;;91.05;36.90;;;5.60;99.90;;;;;;6211708;23;20087;-78
2021/11/16 03:51:15;;;;;;;91.10;38.55;;;5.60;99.90;;;;;;6186382;23;20063;-78
2021/11/16 03:53:41;;;;;;;92.18;40.03;;;5.60;99.90;;;;;;6211626;23;20012;-78
2021/11/16 03:56:07;;;;;;;88.57;38.70;;;5.60;99.90;;;;;;6211871;23;20012;-78
2021/11/16 03:58:33;;;;;;;86.28;37.78;;;5.60;99.90;;;;;;6212401;23;20455;-79
2021/11/16 04:01:08;;;;;;;89.43;38.38;;;5.60;99.90;;;;;;6211170;23;20444;-78
2021/11/16 04:03:37;;;;;;;92.68;39.05;;;5.60;99.90;;;;;;6210621;23;20070;-78
2021/11/16 04:06:05;;;;;;;87.63;37.95;;;5.70;99.90;;;;;;6200248;23;20027;-78
2021/11/16 04:08:31;;;;;;;96.13;37.67;;;5.60;99.90;;;;;;6157820;23;20028;-79
2021/11/16 04:10:56;;;;;;;91.15;37.42;;;5.60;99.90;;;;;;6183712;23;20039;-79
2021/11/16 04:13:22;;;;;;;91.70;36.67;;;5.60;99.90;;;;;;6184282;23;20430;-77
2021/11/16 04:15:49;;;;;;;89.47;36.65;;;5.70;99.90;;;;;;6131401;23;20017;-77
2021/11/16 04:18:16;;;;;;;91.95;37.13;;;5.60;99.90;;;;;;6156221;23;20081;-77
2021/11/16 04:20:44;;;;;;;88.68;38.25;;;5.60;99.90;;;;;;6156956;23;20013;-78
2021/11/16 04:23:12;;;;;;;84.97;35.42;;;5.60;99.90;;;;;;6183586;23;20337;-78
2021/11/16 04:25:39;;;;;;;89.28;35.17;;;5.60;99.90;;;;;;6132126;23;20017;-78
2021/11/16 04:28:09;;;;;;;83.68;35.92;;;5.60;99.90;;;;;;6133042;23;20055;-78
2021/11/16 04:30:36;;;;;;;91.78;37.55;;;5.60;99.90;;;;;;6155919;23;20013;-78
2021/11/16 04:33:02;;;;;;;91.15;37.40;;;5.60;99.90;;;;;;6156281;23;20017;-78
2021/11/16 04:35:29;;;;;;;89.05;37.97;;;5.60;99.90;;;;;;6183008;23;20036;-78
2021/11/16 04:37:57;;;;;;;92.43;37.70;;;5.60;99.90;;;;;;6156248;23;20009;-78
2021/11/16 04:40:31;;;;;;;87.15;35.95;;;5.60;99.90;;;;;;6132300;23;20071;-78
2021/11/16 04:42:58;;;;;;;86.07;35.22;;;5.60;99.90;;;;;;6158502;23;20009;-78
2021/11/16 04:45:24;;;;;;;88.45;35.63;;;5.60;99.90;;;;;;6133679;23;20017;-79
2021/11/16 04:48:08;;;;;;;79.35;35.03;;;5.60;99.90;;;;;;6158362;23;20146;-78
2021/11/16 04:59:33;;;;;;;83.90;35.50;;;5.60;99.90;;;;;;6158535;23;20390;-78
2021/11/16 05:04:09;;;;;;;94.60;35.58;;;5.60;99.90;;;;;;6158531;23;20029;-77
2021/11/16 05:06:35;;;;;;;85.40;35.72;;;5.60;99.90;;;;;;6158213;23;20501;-78
2021/11/16 05:09:01;;;;;;;88.32;36.33;;;5.60;99.90;;;;;;6134188;23;20113;-78
2021/11/16 05:11:27;;;;;;;89.18;35.60;;;5.60;99.90;;;;;;6157965;23;20017;-77
2021/11/16 05:13:53;;;;;;;84.32;34.80;;;5.60;99.90;;;;;;6158757;23;20019;-77
2021/11/16 05:16:21;;;;;;;89.57;36.15;;;5.60;99.90;;;;;;6158642;23;20009;-78
2021/11/16 05:18:47;;;;;;;84.65;35.65;;;5.60;99.90;;;;;;6158404;23;20180;-78
2021/11/16 05:21:14;;;;;;;86.53;36.22;;;5.70;99.90;;;;;;6133874;23;20013;-79
2021/11/16 05:23:48;;;;;;;94.93;36.97;;;5.60;99.90;;;;;;6133950;23;20141;-79
2021/11/16 05:26:14;;;;;;;94.03;37.08;;;5.60;99.90;;;;;;6158259;23;20017;-79
2021/11/16 05:28:40;;;;;;;93.03;36.03;;;5.60;99.90;;;;;;6133635;23;20017;-78
2021/11/16 05:31:05;;;;;;;84.72;34.58;;;5.60;99.90;;;;;;6133641;23;20031;-78
2021/11/16 05:33:31;;;;;;;94.28;35.00;;;5.70;99.90;;;;;;6133801;23;20021;-79
2021/11/16 05:35:59;;;;;;;95.32;34.67;;;5.60;99.90;;;;;;6184798;23;20068;-78
2021/11/16 05:38:31;;;;;;;89.53;34.40;;;5.60;99.90;;;;;;6158720;23;20326;-79
2021/11/16 05:40:58;;;;;;;95.85;35.85;;;5.50;99.90;;;;;;6158137;23;20028;-79
2021/11/16 05:43:25;;;;;;;86.60;35.05;;;5.60;99.90;;;;;;6133319;23;20021;-79
2021/11/16 05:45:52;;;;;;;85.78;36.05;;;5.60;99.90;;;;;;6133152;23;20017;-79
2021/11/16 05:48:23;;;;;;;80.78;34.25;;;5.50;99.90;;;;;;6157558;23;20087;-78
2021/11/16 05:50:49;;;;;;;90.00;35.50;;;5.60;99.90;;;;;;6158055;23;20334;-78
2021/11/16 05:53:16;;;;;;;90.20;36.20;;;5.50;99.90;;;;;;6132206;23;20013;-78
2021/11/16 05:55:46;;;;;;;94.47;37.33;;;5.50;99.90;;;;;;6132446;23;20088;-78
2021/11/16 05:58:17;;;;;;;93.18;37.50;;;5.50;99.90;;;;;;6133043;23;20075;-78
2021/11/16 06:00:43;;;;;;;90.60;36.70;;;5.60;99.90;;;;;;6131765;23;20459;-78
2021/11/16 06:03:09;;;;;;;87.20;34.95;;;5.50;99.90;;;;;;6132135;23;20091;-78
2021/11/16 06:05:35;;;;;;;85.40;34.20;;;5.50;99.90;;;;;;6156765;23;20020;-78
2021/11/16 06:08:00;;;;;;;100.93;37.50;;;5.60;99.90;;;;;;6212027;23;20070;-78
2021/11/16 06:10:26;;;;;;;92.07;36.88;;;5.60;99.90;;;;;;6186857;23;20432;-78
2021/11/16 06:12:52;;;;;;;94.43;36.22;;;5.80;99.90;;;;;;6186717;23;20488;-78
2021/11/16 06:15:17;;;;;;;93.57;37.53;;;5.50;99.90;;;;;;6187484;23;20043;-78
2021/11/16 06:17:44;;;;;;;93.20;37.08;;;5.60;99.90;;;;;;6162443;23;20012;-79
2021/11/16 06:20:12;;;;;;;94.85;36.33;;;5.60;99.90;;;;;;6162761;23;20458;-79
2021/11/16 06:22:38;;;;;;;93.75;37.10;;;5.50;99.90;;;;;;6186938;23;20428;-78
2021/11/16 06:25:04;;;;;;;87.05;36.42;;;5.60;99.90;;;;;;6162362;23;20016;-78
2021/11/16 06:27:29;;;;;;;90.25;35.55;;;5.60;99.90;;;;;;6162398;23;20025;-79
2021/11/16 06:29:56;;;;;;;95.53;37.30;;;5.60;99.90;;;;;;6187067;23;20017;-79
2021/11/16 06:32:21;;;;;;;99.55;38.80;;;5.50;99.90;;;;;;6187319;23;20012;-80
2021/11/16 06:34:47;;;;;;;98.82;36.55;;;5.50;99.90;;;;;;6187112;23;20019;-79
2021/11/16 06:37:13;;;;;;;89.95;35.85;;;5.50;99.90;;;;;;6162686;23;20281;-80
2021/11/16 06:39:38;;;;;;;94.00;36.40;;;5.50;99.90;;;;;;6187661;23;20013;-76
2021/11/16 06:42:05;;;;;;;101.53;37.13;;;5.50;99.90;;;;;;6186800;23;20337;-79
2021/11/16 06:44:31;;;;;;;97.53;38.10;;;5.40;99.90;;;;;;6162211;23;20017;-79
2021/11/16 06:46:57;;;;;;;103.82;38.83;;;5.50;99.90;;;;;;6186735;23;20020;-80
2021/11/16 06:49:23;;;;;;;104.90;39.17;;;5.40;99.90;;;;;;6185161;23;20325;-79
2021/11/16 06:51:52;;;;;;;103.65;37.30;;;5.50;99.90;;;;;;6187420;23;20095;-80
2021/11/16 06:54:21;;;;;;;98.57;38.28;;;5.50;99.90;;;;;;6187419;23;20289;-78
2021/11/16 06:56:49;;;;;;;94.32;37.80;;;5.50;99.90;;;;;;6187273;23;20269;-77
2021/11/16 06:59:16;;;;;;;97.32;37.30;;;5.60;99.90;;;;;;6186897;23;20008;-78
2021/11/16 07:01:42;;;;;;;94.03;35.65;;;5.50;99.90;;;;;;6186489;23;20032;-77
2021/11/16 07:04:10;;;;;;;95.93;36.50;;;5.50;99.90;;;;;;6161865;23;20013;-79
2021/11/16 07:06:41;;;;;;;96.28;34.95;;;5.50;99.90;;;;;;6195709;23;20471;-79
2021/11/16 07:09:07;;;;;;;102.25;38.05;;;5.40;99.90;;;;;;6212168;23;20536;-79
2021/11/16 07:11:52;;;;;;;98.82;35.35;;;5.50;99.90;;;;;;6212411;23;20012;-78
2021/11/16 07:14:24;;;;;;;101.70;38.00;;;5.40;99.90;;;;;;6186522;23;20512;-78
2021/11/16 07:16:52;;;;;;;98.43;36.90;;;5.50;99.90;;;;;;6186329;23;20109;-77
2021/11/16 07:19:28;;;;;;;107.25;36.72;;;5.40;99.90;;;;;;6187074;23;20405;-76
2021/11/16 07:21:54;;;;;;;97.00;34.78;;;5.40;99.90;;;;;;6187113;23;20390;-78
2021/11/16 07:24:27;;;;;;;106.93;37.60;;;5.40;99.90;;;;;;6212075;23;20050;-79
2021/11/16 07:27:05;;;;;;;104.45;37.95;;;5.40;99.90;;;;;;6212291;23;20051;-78
2021/11/16 07:29:39;;;;;;;99.78;37.20;;;5.40;99.90;;;;;;6211163;23;20016;-77
2021/11/16 07:32:07;;;;;;;104.10;36.95;;;5.30;99.90;;;;;;6186245;23;20020;-78
2021/11/16 07:34:35;;;;;;;93.22;36.80;;;5.40;99.90;;;;;;6212428;23;20360;-78
2021/11/16 07:37:00;;;;;;;102.55;37.83;;;5.40;99.90;;;;;;6211376;23;20017;-78
2021/11/16 07:39:30;;;;;;;100.40;37.63;;;5.30;99.90;;;;;;6210941;23;20020;-78
2021/11/16 07:42:07;;;;;;;99.82;36.83;;;5.40;99.90;;;;;;6208982;23;20523;-81
2021/11/16 07:44:34;;;;;;;97.65;36.90;;;5.40;99.90;;;;;;6183611;23;20589;-79
2021/11/16 07:47:00;;;;;;;105.53;37.22;;;5.40;99.90;;;;;;6209306;23;20048;-79
2021/11/16 07:49:26;;;;;;;104.35;37.38;;;5.40;99.90;;;;;;6209310;23;20154;-78
2021/11/16 07:51:54;;;;;;;109.47;38.60;;;5.40;99.90;;;;;;6210450;23;20492;-79
2021/11/16 07:54:22;;;;;;;103.90;37.33;;;5.40;99.90;;;;;;6210273;23;20017;-80
2021/11/16 07:56:48;;;;;;;106.35;38.33;;;5.50;99.90;;;;;;6209992;23;20091;-77
2021/11/16 07:59:17;;;;;;;105.38;38.00;;;5.50;99.90;;;;;;6184238;23;20468;-79
2021/11/16 08:09:45;;;;;;;100.93;36.58;;;5.50;99.90;;;;;;6186539;23;20020;-79
2021/11/16 08:14:59;;;;;;;115.07;38.78;;;5.40;99.90;;;;;;6183891;23;20447;-80
2021/11/16 08:17:26;;;;;;;104.22;39.20;;;5.50;99.90;;;;;;6184364;23;20100;-77
2021/11/16 08:19:57;;;;;;;108.35;38.10;;;5.50;99.90;;;;;;6184967;23;20040;-77
2021/11/16 08:22:23;;;;;;;107.57;36.67;;;5.50;99.90;;;;;;6185403;23;20428;-77
2021/11/16 08:24:50;;;;;;;99.38;36.55;;;5.50;99.90;;;;;;6184923;23;20013;-78
2021/11/16 08:27:26;;;;;;;105.05;37.58;;;5.60;99.90;;;;;;6185606;23;20012;-78
2021/11/16 08:30:00;;;;;;;102.18;35.92;;;5.50;99.90;;;;;;6184447;23;20016;-78
2021/11/16 08:32:34;;;;;;;97.05;36.15;;;5.50;99.90;;;;;;6158124;23;20023;-79
2021/11/16 08:35:00;;;;;;;114.60;38.33;;;5.50;99.90;;;;;;6184503;23;20013;-77
2021/11/16 08:37:36;;;;;;;108.30;36.90;;;5.50;99.90;;;;;;6159411;23;20349;-78
2021/11/16 08:40:13;;;;;;;98.25;36.90;;;5.50;99.90;;;;;;6184143;23;20013;-78
2021/11/16 08:42:42;;;;;;;102.53;36.70;;;5.50;99.90;;;;;;6159692;23;20409;-78
2021/11/16 08:45:25;;;;;;;98.68;36.42;;;5.50;99.90;;;;;;6159799;23;20721;-79
2021/11/16 08:47:58;;;;;;;99.07;36.13;;;5.50;99.90;;;;;;6185290;23;20019;-79
2021/11/16 08:50:34;;;;;;;105.32;38.38;;;5.40;99.90;;;;;;6183958;23;20025;-78
2021/11/16 08:53:24;;;;;;;98.80;37.53;;;5.50;99.90;;;;;;6186059;23;20092;-79
2021/11/16 08:55:51;;;;;;;101.30;37.00;;;5.50;99.90;;;;;;6173579;23;20092;-79
2021/11/16 08:58:17;;;;;;;106.93;37.42;;;5.50;99.90;;;;;;6185474;23;20020;-78
2021/11/16 09:00:52;;;;;;;102.75;36.75;;;5.50;99.90;;;;;;6185094;23;20318;-80
2021/11/16 09:03:26;;;;;;;101.43;34.92;;;5.50;99.90;;;;;;6185419;23;20087;-80
2021/11/16 09:05:53;;;;;;;104.40;36.97;;;5.50;99.90;;;;;;6161496;23;20326;-79
2021/11/16 09:08:23;;;;;;;103.22;36.67;;;5.40;99.90;;;;;;6210579;23;20094;-78
2021/11/16 09:10:54;;;;;;;95.63;34.90;;;5.50;99.90;;;;;;6211462;23;20483;-79
2021/11/16 09:13:23;;;;;;;105.88;37.80;;;5.50;99.90;;;;;;6210728;23;20051;-78
2021/11/16 09:16:04;;;;;;;97.68;35.80;;;5.60;99.90;;;;;;6209595;23;20088;-78
2021/11/16 09:18:47;;;;;;;108.20;36.95;;;5.50;99.90;;;;;;6210031;23;20103;-79
2021/11/16 09:21:20;;;;;;;98.00;35.33;;;5.60;99.90;;;;;;6209580;23;20092;-79
2021/11/16 09:23:49;;;;;;;100.78;36.17;;;5.50;99.90;;;;;;6207871;23;20027;-79
2021/11/16 09:29:14;;;;;;;102.13;35.67;;;5.50;99.90;;;;;;6215011;23;20113;-78
2021/11/16 09:31:49;;;;;;;100.70;34.75;;;5.50;99.90;;;;;;6186655;23;20012;-78
2021/11/16 09:34:18;;;;;;;105.50;36.78;;;5.50;99.90;;;;;;6185961;23;20016;-77
2021/11/16 09:37:04;;;;;;;95.13;35.00;;;5.50;99.90;;;;;;6212591;23;20016;-77
2021/11/16 09:39:47;;;;;;;95.60;33.45;;;5.50;99.90;;;;;;6212397;23;20008;-75
2021/11/16 09:42:36;;;;;;;96.85;36.30;;;5.60;99.90;;;;;;6212051;23;20023;-76
2021/11/16 09:45:16;;;;;;;105.88;36.15;;;5.50;99.90;;;;;;6212539;23;20013;-77
2021/11/16 09:47:43;;;;;;;102.78;36.78;;;5.50;99.90;;;;;;6211922;23;20119;-76
2021/11/16 09:50:19;;;;;;;105.97;36.15;;;5.50;99.90;;;;;;6212465;23;20039;-75
2021/11/16 09:52:48;;;;;;;110.88;38.38;;;5.60;99.90;;;;;;6211313;23;20012;-74
2021/11/16 09:55:14;;;;;;;108.00;35.05;;;5.60;99.90;;;;;;6186657;23;20019;-76
2021/11/16 09:57:59;;;;;;;106.45;36.13;;;5.60;99.90;;;;;;6185982;23;20009;-78
2021/11/16 10:00:29;;;;;;;95.15;34.45;;;5.60;99.90;;;;;;6185092;23;20016;-75
2021/11/16 10:03:06;;;;;;;106.80;36.45;;;5.60;99.90;;;;;;6187350;23;20020;-75
2021/11/16 10:05:39;;;;;;;101.97;33.58;;;5.60;99.90;;;;;;6210728;23;20107;-76
2021/11/16 10:08:06;;;;;;;100.30;36.28;;;5.60;99.90;;;;;;6185850;23;20449;-77
2021/11/16 10:10:39;;;;;;;98.07;36.33;;;5.60;99.90;;;;;;6186125;23;20021;-75
2021/11/16 10:13:08;;;;;;;104.88;35.80;;;5.60;99.90;;;;;;6185604;23;20017;-77
2021/11/16 10:15:36;;;;;;;99.65;36.53;;;5.60;99.90;;;;;;6185889;23;20013;-77
2021/11/16 10:18:02;;;;;;;105.03;36.38;;;5.60;99.90;;;;;;6184273;23;20313;-79
2021/11/16 10:20:33;;;;;;;97.45;35.45;;;5.60;99.90;;;;;;6160837;23;20018;-78
2021/11/16 10:23:01;;;;;;;108.63;36.72;;;5.60;99.90;;;;;;6185906;23;20013;-79
2021/11/16 10:25:32;;;;;;;98.03;35.10;;;5.60;99.90;;;;;;6160311;23;20099;-79
2021/11/16 10:28:05;;;;;;;93.45;32.95;;;5.60;99.90;;;;;;6185905;23;20025;-79
2021/11/16 10:30:32;;;;;;;93.05;32.92;;;5.50;99.90;;;;;;6159424;23;20067;-79
2021/11/16 10:33:10;;;;;;;84.10;32.05;;;5.60;99.90;;;;;;6185060;23;20020;-79
2021/11/16 10:35:59;;;;;;;88.95;32.25;;;5.60;99.90;;;;;;6161498;23;20016;-77
2021/11/16 10:38:32;;;;;;;81.10;29.52;;;5.60;99.90;;;;;;6187594;23;20021;-77
2021/11/16 10:41:05;;;;;;;74.63;29.88;;;5.60;99.90;;;;;;6186838;23;20349;-76
2021/11/16 10:43:34;;;;;;;76.35;28.75;;;5.50;99.90;;;;;;6161284;23;20016;-77
2021/11/16 10:46:02;;;;;;;79.47;28.77;;;5.60;99.90;;;;;;6186791;23;20091;-75
2021/11/16 10:48:29;;;;;;;69.65;26.88;;;5.60;99.90;;;;;;6160921;23;20019;-76
2021/11/16 10:50:54;;;;;;;82.07;29.15;;;5.70;99.90;;;;;;6186955;23;20059;-77
2021/11/16 10:53:23;;;;;;;73.70;28.45;;;5.60;99.90;;;;;;6186914;23;20013;-76
2021/11/16 10:55:55;;;;;;;70.50;27.27;;;5.60;99.90;;;;;;6186989;23;20313;-77
2021/11/16 10:58:34;;;;;;;79.93;29.00;;;5.60;99.90;;;;;;6186289;23;20013;-76
2021/11/16 11:01:07;;;;;;;76.97;29.05;;;5.60;99.90;;;;;;6162367;23;20092;-77
2021/11/16 11:03:35;;;;;;;74.10;29.15;;;5.60;99.90;;;;;;6160864;23;20337;-80
2021/11/16 11:09:35;;;;;;;82.78;31.75;;;5.70;99.90;;;;;;6215250;23;20044;-79
2021/11/16 11:12:39;;;;;;;;;;;;;;;;;;;;;
2021/11/16 11:15:52;;;;;;;89.88;32.30;;;5.60;99.90;;;;;;6214048;23;20040;-78
2021/11/16 11:18:39;;;;;;;88.72;30.75;;;5.70;99.90;;;;;;6172702;23;20020;-78
2021/11/16 11:21:22;;;;;;;76.80;29.10;;;5.70;99.90;;;;;;6154817;23;20024;-78
2021/11/16 11:23:52;;;;;;;83.10;28.60;;;5.60;99.90;;;;;;6131283;23;20024;-78
2021/11/16 11:27:09;;;;;;;75.45;28.40;;;5.70;99.90;;;;;;6155671;23;20045;-78
2021/11/16 11:29:26;;;;;;;75.68;28.98;;;5.60;99.90;;;;;;6145448;23;20059;-78
2021/11/16 11:32:00;;;;;;;78.93;29.92;;;5.60;99.90;;;;;;6155295;23;20039;-78
2021/11/16 11:34:38;;;;;;;77.47;28.88;;;5.60;99.90;;;;;;6132052;23;20028;-78
2021/11/16 11:37:08;;;;;;;76.88;28.83;;;5.70;99.90;;;;;;6130468;23;20013;-78
2021/11/16 11:39:35;;;;;;;80.03;30.63;;;5.60;99.90;;;;;;6130731;23;20017;-78
2021/11/16 11:42:01;;;;;;;76.35;29.08;;;5.60;99.90;;;;;;6155220;23;20028;-78
2021/11/16 11:44:28;;;;;;;81.47;30.35;;;5.60;99.90;;;;;;6130471;23;20028;-78
2021/11/16 11:46:56;;;;;;;83.70;29.83;;;5.60;99.90;;;;;;6150911;23;20017;-79
2021/11/16 11:49:23;;;;;;;80.15;28.02;;;5.60;99.90;;;;;;6211128;23;20061;-78
2021/11/16 11:51:50;;;;;;;82.43;29.67;;;5.60;99.90;;;;;;6241391;23;20359;-77
2021/11/16 11:54:17;;;;;;;85.45;29.98;;;5.60;99.90;;;;;;6215142;23;20305;-76
2021/11/16 11:56:44;;;;;;;80.97;28.75;;;5.70;99.90;;;;;;6240993;23;20467;-78
2021/11/16 11:59:10;;;;;;;78.35;28.58;;;5.60;99.90;;;;;;6241310;23;20039;-78
2021/11/16 12:01:36;;;;;;;72.82;28.10;;;5.70;99.90;;;;;;6215931;23;20297;-78
2021/11/16 12:04:02;;;;;;;71.00;26.63;;;5.60;99.90;;;;;;6241642;22;20023;-78
2021/11/16 12:06:30;;;;;;;68.75;24.75;;;5.70;99.90;;;;;;6241054;23;20478;-78
2021/11/16 12:08:58;;;;;;;65.63;24.27;;;5.70;99.90;;;;;;6215652;23;20095;-78
2021/11/16 12:11:24;;;;;;;61.55;23.90;;;5.70;99.90;;;;;;6213868;23;20023;-79
2021/11/16 12:13:54;;;;;;;67.03;24.40;;;5.70;99.90;;;;;;6237755;23;20012;-79
2021/11/16 12:16:52;;;;;;;74.85;26.15;;;5.70;99.90;;;;;;6215578;23;20008;-79
2021/11/16 12:19:19;;;;;;;65.05;23.60;;;5.70;99.90;;;;;;6215936;23;20103;-77
2021/11/16 12:21:47;;;;;;;58.67;23.15;;;5.80;99.90;;;;;;6216335;23;20393;-78
2021/11/16 12:24:29;;;;;;;61.35;22.40;;;5.70;99.90;;;;;;6241479;23;20058;-79
2021/11/16 12:26:57;;;;;;;53.63;21.70;;;5.70;99.90;;;;;;6239408;23;20148;-78
2021/11/16 12:29:26;;;;;;;54.65;21.90;;;5.80;99.90;;;;;;6239755;23;20019;-78
2021/11/16 12:31:54;;;;;;;63.42;24.65;;;5.70;99.90;;;;;;6215057;23;20012;-77
2021/11/16 12:34:42;;;;;;;69.15;24.65;;;5.70;99.90;;;;;;6214603;23;20424;-76
2021/11/16 12:37:26;;;;;;;66.32;24.92;;;5.70;99.90;;;;;;6239428;23;20447;-78
2021/11/16 12:39:58;;;;;;;62.40;25.95;;;5.70;99.90;;;;;;6241300;22;20019;-78
2021/11/16 12:42:24;;;;;;;69.03;25.80;;;5.70;99.90;;;;;;6240860;23;20123;-78
2021/11/16 12:45:02;;;;;;;67.88;25.38;;;5.70;99.90;;;;;;6241329;23;20059;-78
2021/11/16 12:47:30;;;;;;;67.07;24.75;;;5.70;99.90;;;;;;6243018;23;20023;-79
2021/11/16 12:50:17;;;;;;;63.97;23.95;;;5.70;99.90;;;;;;6215674;23;20054;-80
2021/11/16 12:52:49;;;;;;;59.55;23.38;;;5.70;99.90;;;;;;6240349;23;20008;-80
2021/11/16 12:55:28;;;;;;;64.93;24.45;;;5.80;99.90;;;;;;6240833;23;20308;-81
2021/11/16 12:57:57;;;;;;;61.58;24.60;;;5.80;99.90;;;;;;6215358;23;20344;-78
2021/11/16 13:00:38;;;;;;;63.90;23.73;;;5.70;99.90;;;;;;6215439;23;20012;-79
2021/11/16 13:03:05;;;;;;;66.95;24.25;;;5.70;99.90;;;;;;6240648;23;20024;-79
2021/11/16 13:05:43;;;;;;;61.90;23.90;;;5.80;99.90;;;;;;6242315;22;20059;-79
2021/11/16 13:08:11;;;;;;;63.83;23.73;;;5.80;99.90;;;;;;6243477;23;20024;-81
2021/11/16 13:10:55;;;;;;;58.88;22.50;;;5.70;99.90;;;;;;6242687;23;20072;-80
2021/11/16 13:13:28;;;;;;;61.58;21.42;;;5.70;99.90;;;;;;6242606;23;20012;-80
2021/11/16 13:15:54;;;;;;;52.88;20.00;;;5.70;99.90;;;;;;6242150;23;20427;-79
2021/11/16 13:18:23;;;;;;;52.30;20.88;;;5.70;99.90;;;;;;6241569;23;20039;-79